Terminal Aerodrome Forecast
Issued by NWS Wakefield, VA

Home | Current Version | Previous Version | Text Only | Print | Product List | Glossary On
Versions: 1 2 3 4 5 6 7 8 9 10 11 12 13 14 15 16 17 18 19 20 21 22
000
FTUS41 KAKQ 262200 AAB
TAFSBY
TAF AMD
KSBY 262204Z 2622/2718 34013G18KT 5SM -RA BR OVC005
      TEMPO 2622/2624 31012KT 2SM -RA BR OVC015
     FM270000 32012KT P6SM OVC015
     FM270500 32005KT P6SM OVC025=

USA.gov is the U.S. government's official web portal to all federal, state and local government web resources and services.